»·PEaware :: N9074Q KSAC-KMRY

N9074Q :: KSAC-KMRY

FLIGHT INFORMATION

Flight Status: Arrived
Operator: Privately registered:
United States
More flights under this callsign
Pilot: John N. (18861)
Aircraft: BEECH AIRCRAFT BONANZA
(BE36)
More flights by this aircraft type
Origin: KSAC Sacramento Executive
United States
Destination: KMRY Monterey Peninsula
United States
More flights between these airports :: More routes between these airports
Route: +MOD V111 SNS
File this flight plan on PilotEdge
Remarks:
Altitude:
(Current/Filed)
60ft
Speed:
(Current/Filed)
162kts
Departed: 09-Aug-18 01:33 PM
Arrived: 09-Aug-18 02:41 PM
Distance/Time
Traveled:
117nm/1:08
Distance/Time
To Go:
Arrived

Flight Plot

Page will automatically refresh every two minutes.

Flight plan parsing failed; only flown route is shown


Map Options




Map Legend


Flown Route
Filed Route
Departure Airport
Arrival Airport
Navaid (VOR, NDB)
Fix

Horizontal Profiles

Position Reports

Time Latitude Longitude Heading Altitude Ground
Speed
09-Aug-18 13:19 38.516032 -121.496356 221 28ft 0kts
09-Aug-18 13:20 38.516032 -121.496357 221 28ft 0kts
09-Aug-18 13:21 38.516031 -121.496358 221 28ft 0kts
09-Aug-18 13:22 38.516030 -121.496359 221 28ft 0kts
09-Aug-18 13:23 38.516030 -121.496359 221 28ft 0kts
09-Aug-18 13:24 38.516029 -121.496360 221 28ft 0kts
09-Aug-18 13:25 38.515901 -121.496460 192 28ft 3kts
09-Aug-18 13:26 38.515830 -121.496444 150 28ft 0kts
09-Aug-18 13:27 38.516344 -121.495228 69 28ft 0kts
09-Aug-18 13:28 38.514996 -121.494810 184 28ft 2kts
09-Aug-18 13:29 38.516908 -121.492739 28 28ft 18kts
09-Aug-18 13:30 38.519342 -121.490337 116 28ft 0kts
09-Aug-18 13:31 38.519342 -121.490337 116 28ft 0kts
09-Aug-18 13:32 38.519342 -121.490337 116 28ft 0kts
09-Aug-18 13:33 38.518809 -121.489329 196 28ft 13kts
09-Aug-18 13:34 38.513226 -121.494049 214 29ft 90kts
09-Aug-18 13:35 38.483022 -121.500965 164 894ft 142kts
09-Aug-18 13:36 38.443195 -121.486776 164 1523ft 159kts
09-Aug-18 13:37 38.400019 -121.471480 164 2136ft 162kts
09-Aug-18 13:38 38.373714 -121.432197 104 2748ft 157kts
09-Aug-18 13:39 38.362837 -121.379791 104 3412ft 155kts
09-Aug-18 13:40 38.352588 -121.328508 97 4169ft 143kts
09-Aug-18 13:41 38.347671 -121.277826 97 5015ft 150kts
09-Aug-18 13:42 38.342286 -121.226552 97 5761ft 139kts
09-Aug-18 13:43 38.337182 -121.177169 97 6593ft 146kts
09-Aug-18 13:44 38.331595 -121.123226 97 7010ft 166kts
09-Aug-18 13:45 38.318443 -121.067781 143 7030ft 171kts
09-Aug-18 13:46 38.272306 -121.057201 172 7028ft 173kts
09-Aug-18 13:47 38.226509 -121.050089 172 7018ft 158kts
09-Aug-18 13:48 38.184293 -121.043538 172 7017ft 148kts
09-Aug-18 13:49 38.142246 -121.037018 172 7025ft 161kts
09-Aug-18 13:50 38.098546 -121.030253 172 7009ft 152kts
09-Aug-18 13:51 38.055845 -121.023649 172 7017ft 163kts
09-Aug-18 13:52 38.012021 -121.016886 172 7008ft 152kts
09-Aug-18 13:53 37.971084 -121.010565 172 7010ft 146kts
09-Aug-18 13:54 37.928924 -121.004071 172 7015ft 159kts
09-Aug-18 13:55 37.883428 -120.997080 172 7015ft 172kts
09-Aug-18 13:56 37.837393 -120.990009 172 7006ft 162kts
09-Aug-18 13:57 37.792919 -120.983178 172 7007ft 159kts
09-Aug-18 13:58 37.748886 -120.976428 172 7005ft 159kts
09-Aug-18 13:59 37.704749 -120.969674 172 7003ft 159kts
09-Aug-18 14:00 37.659352 -120.962735 172 7005ft 173kts
09-Aug-18 14:01 37.614045 -120.966339 209 7007ft 165kts
09-Aug-18 14:02 37.574273 -120.993882 208 7000ft 160kts
09-Aug-18 14:03 37.535136 -121.020500 207 6988ft 160kts
09-Aug-18 14:04 37.495314 -121.047462 207 6998ft 167kts
09-Aug-18 14:05 37.454048 -121.075379 207 7003ft 172kts
09-Aug-18 14:06 37.419291 -121.098875 207 7010ft 173kts
09-Aug-18 14:07 37.371068 -121.131413 207 6987ft 176kts
09-Aug-18 14:08 37.336084 -121.154986 207 6981ft 175kts
09-Aug-18 14:09 37.294037 -121.183288 207 6978ft 169kts
09-Aug-18 14:10 37.245591 -121.215857 207 6992ft 173kts
09-Aug-18 14:11 37.211054 -121.239059 207 6991ft 168kts
09-Aug-18 14:12 37.162624 -121.271524 207 6995ft 175kts
09-Aug-18 14:13 37.127391 -121.295116 207 6994ft 172kts
09-Aug-18 14:14 37.085583 -121.323083 207 6995ft 171kts
09-Aug-18 14:15 37.047162 -121.348760 207 6999ft 173kts
09-Aug-18 14:16 37.001888 -121.378996 207 6984ft 163kts
09-Aug-18 14:17 36.961392 -121.405943 207 6996ft 171kts
09-Aug-18 14:18 36.919074 -121.434094 207 6994ft 175kts
09-Aug-18 14:19 36.876540 -121.462371 207 6996ft 175kts
09-Aug-18 14:20 36.839506 -121.486975 207 6998ft 168kts
09-Aug-18 14:21 36.797610 -121.514736 208 6975ft 172kts
09-Aug-18 14:22 36.756275 -121.542111 208 6987ft 163kts
09-Aug-18 14:23 36.716329 -121.568543 208 7015ft 171kts
09-Aug-18 14:24 36.674786 -121.595998 207 7010ft 166kts
09-Aug-18 14:25 36.631992 -121.588528 160 6845ft 169kts
09-Aug-18 14:26 36.586843 -121.568119 159 6212ft 175kts
09-Aug-18 14:27 36.542692 -121.548087 160 6099ft 162kts
09-Aug-18 14:28 36.500290 -121.528867 160 6108ft 168kts
09-Aug-18 14:29 36.466784 -121.494008 111 6102ft 164kts
09-Aug-18 14:30 36.455137 -121.444719 63 6091ft 156kts
09-Aug-18 14:31 36.483879 -121.455625 263 6096ft 152kts
09-Aug-18 14:32 36.470176 -121.503645 278 6100ft 152kts
09-Aug-18 14:33 36.486555 -121.550712 294 5984ft 150kts
09-Aug-18 14:34 36.502411 -121.596149 292 5247ft 125kts
09-Aug-18 14:35 36.515284 -121.633368 292 4623ft 112kts
09-Aug-18 14:36 36.530236 -121.672137 291 3847ft 129kts
09-Aug-18 14:37 36.542047 -121.711891 292 3285ft 122kts
09-Aug-18 14:38 36.554926 -121.751907 296 2524ft 120kts
09-Aug-18 14:39 36.568046 -121.787000 292 1533ft 96kts
09-Aug-18 14:40 36.577794 -121.817224 294 692ft 93kts
09-Aug-18 14:41 36.586232 -121.842224 293 225ft 74kts
09-Aug-18 14:42 36.589758 -121.854120 256 209ft 12kts
09-Aug-18 14:43 36.589558 -121.858160 250 209ft 17kts
09-Aug-18 14:44 36.589647 -121.858330 168 209ft 0kts

Navigation Log

Ident Type
Flight plan parsing failed, navigation log unavailable